Time;durP1;ratioP1;P1;durP2;ratioP2;P2;SDS_P1;SDS_P2;PMS_P1;PMS_P2;Temp;Humidity;BMP_temperature;BMP_pressure;BME280_temperature;BME280_humidity;BME280_pressure;Samples;Min_cycle;Max_cycle;Signal;HPM_P1;HPM_P2
2021/03/18 00:02:08;;;;;;;15.27;4.00;;;2.60;90.30;1.00;102616.00;;;;4978768;28;20046;-68
2021/03/18 00:04:34;;;;;;;10.18;3.60;;;2.50;90.70;1.00;102611.00;;;;4957871;28;20039;-68
2021/03/18 00:07:00;;;;;;;11.07;3.80;;;2.40;90.30;1.00;102618.00;;;;4988281;28;20530;-68
2021/03/18 00:09:26;;;;;;;12.10;3.50;;;2.40;90.60;0.90;102619.00;;;;4976441;28;20471;-68
2021/03/18 00:11:52;;;;;;;12.98;4.00;;;2.40;90.50;0.90;102602.00;;;;4974819;28;20046;-69
2021/03/18 00:14:23;;;;;;;15.75;5.25;;;2.40;90.40;0.90;102610.00;;;;4976876;28;20588;-69
2021/03/18 00:16:50;;;;;;;13.15;3.80;;;2.30;90.10;0.80;102620.00;;;;4990768;28;20091;-69
2021/03/18 00:19:16;;;;;;;14.85;4.38;;;2.30;90.70;0.80;102613.00;;;;4979248;28;20046;-69
2021/03/18 00:21:42;;;;;;;14.35;4.63;;;2.30;90.30;0.80;102611.00;;;;4976897;28;20046;-69
2021/03/18 00:24:09;;;;;;;15.20;4.65;;;2.30;90.80;0.80;102605.00;;;;4992528;28;20451;-69
2021/03/18 00:26:36;;;;;;;19.08;4.38;;;2.70;90.80;0.80;102603.00;;;;4974156;28;20118;-69
2021/03/18 00:29:04;;;;;;;15.52;4.28;;;2.20;90.60;0.80;102600.00;;;;4983228;28;20050;-68
2021/03/18 00:31:34;;;;;;;18.15;4.25;;;2.30;90.70;0.80;102600.00;;;;4995464;28;20077;-69
2021/03/18 00:34:03;;;;;;;13.02;3.38;;;2.20;90.20;0.70;102602.00;;;;4989789;28;20038;-70
2021/03/18 00:36:29;;;;;;;16.17;3.35;;;2.20;90.70;0.70;102601.00;;;;4976244;28;20508;-69
2021/03/18 00:38:58;;;;;;;9.82;3.50;;;2.80;90.70;0.70;102595.00;;;;4989104;28;20097;-69
2021/03/18 00:41:24;;;;;;;6.30;3.45;;;2.10;90.30;0.70;102607.00;;;;4993911;28;20053;-69
2021/03/18 00:43:50;;;;;;;15.30;3.60;;;2.10;90.30;0.60;102600.00;;;;4978054;28;20158;-69
2021/03/18 00:46:16;;;;;;;12.00;3.75;;;2.10;90.60;0.60;102593.00;;;;4971812;28;20226;-69
2021/03/18 00:48:45;;;;;;;10.98;3.60;;;2.10;90.60;0.50;102604.00;;;;4979067;28;20039;-69
2021/03/18 00:51:15;;;;;;;10.90;3.80;;;2.10;90.60;0.50;102596.00;;;;4985613;28;20133;-70
2021/03/18 00:53:45;;;;;;;12.18;3.67;;;2.00;90.60;0.50;102598.00;;;;4974008;28;20042;-69
2021/03/18 00:56:18;;;;;;;12.40;3.40;;;2.00;90.70;0.40;102595.00;;;;4975589;28;20173;-70
2021/03/18 00:58:49;;;;;;;10.50;3.70;;;2.00;90.70;0.40;102605.00;;;;4991185;28;20133;-70
2021/03/18 01:01:24;;;;;;;12.55;3.38;;;1.90;90.80;0.40;102602.00;;;;4973984;28;20076;-70
2021/03/18 01:03:50;;;;;;;11.13;3.40;;;1.90;90.70;0.30;102604.00;;;;4971717;28;20034;-70
2021/03/18 01:06:25;;;;;;;11.45;3.53;;;1.80;90.30;0.30;102599.00;;;;4989791;28;20046;-70
2021/03/18 01:08:54;;;;;;;10.10;3.72;;;1.80;90.70;0.20;102605.00;;;;4971201;28;20042;-70
2021/03/18 01:11:28;;;;;;;14.35;3.72;;;1.70;90.30;0.20;102598.00;;;;4971343;28;20042;-70
2021/03/18 01:14:05;;;;;;;13.02;4.00;;;1.70;90.80;0.20;102604.00;;;;4970673;28;20077;-70
2021/03/18 01:16:39;;;;;;;16.85;4.07;;;1.70;90.60;0.20;102614.00;;;;4989283;28;20050;-70
2021/03/18 01:19:08;;;;;;;13.35;3.65;;;1.70;90.90;0.10;102610.00;;;;4972520;28;20046;-71
2021/03/18 01:21:40;;;;;;;10.50;3.10;;;1.60;90.40;0.10;102610.00;;;;4985933;28;20145;-70
2021/03/18 01:24:08;;;;;;;10.40;4.03;;;1.60;90.50;0.10;102620.00;;;;4973298;28;20065;-70
2021/03/18 01:26:34;;;;;;;18.35;5.68;;;1.60;90.90;0.00;102618.00;;;;4972190;28;20626;-70
2021/03/18 01:29:01;;;;;;;20.08;8.13;;;1.50;90.50;0.00;102621.00;;;;4977539;28;20563;-70
2021/03/18 01:31:27;;;;;;;16.35;7.53;;;1.50;90.90;-0.10;102624.00;;;;4969866;28;20129;-70
2021/03/18 01:33:53;;;;;;;19.58;8.90;;;1.50;90.70;0.00;102619.00;;;;4969933;28;20053;-70
2021/03/18 01:36:20;;;;;;;19.60;7.20;;;1.50;91.10;0.00;102616.00;;;;4970995;28;20034;-70
2021/03/18 01:38:47;;;;;;;16.52;5.97;;;1.50;90.70;0.00;102619.00;;;;4972953;28;20046;-70
2021/03/18 01:41:18;;;;;;;12.93;6.55;;;1.50;91.10;0.00;102612.00;;;;4971747;28;20105;-70
2021/03/18 01:43:45;;;;;;;14.65;5.80;;;1.60;91.00;0.00;102623.00;;;;4987446;28;20050;-70
2021/03/18 01:46:13;;;;;;;12.88;6.05;;;1.50;90.70;0.00;102614.00;;;;4971889;28;20056;-70
2021/03/18 01:48:40;;;;;;;;;;;1.60;91.10;0.00;102600.00;;;;4988902;28;20046;-70
2021/03/18 01:51:06;;;;;;;16.83;7.03;;;1.50;91.20;0.10;102608.00;;;;4954793;28;19922;-70
2021/03/18 01:53:33;;;;;;;20.90;7.78;;;1.60;90.60;0.10;102605.00;;;;4972116;28;20076;-70
2021/03/18 01:56:00;;;;;;;10.98;5.45;;;5.30;92.00;0.10;102594.00;;;;4988608;28;20445;-71
2021/03/18 01:58:27;;;;;;;13.40;6.40;;;1.60;91.00;0.20;102597.00;;;;4972110;28;20528;-70
2021/03/18 02:00:57;;;;;;;14.35;6.25;;;1.60;91.00;0.20;102583.00;;;;4970091;28;20112;-71
2021/03/18 02:03:24;;;;;;;17.63;6.60;;;5.60;92.00;0.20;102585.00;;;;4971675;28;20042;-70
2021/03/18 02:05:51;;;;;;;13.48;5.10;;;1.60;90.60;0.10;102597.00;;;;4958101;28;20134;-70
2021/03/18 02:08:17;;;;;;;10.60;4.20;;;1.60;91.00;0.10;102591.00;;;;4971535;28;20062;-69
2021/03/18 02:10:44;;;;;;;8.35;3.13;;;1.60;90.90;0.10;102580.00;;;;4972929;28;20503;-71
2021/03/18 02:13:13;;;;;;;15.75;4.43;;;1.60;91.00;0.10;102568.00;;;;4976623;28;20051;-71
2021/03/18 02:15:46;;;;;;;13.38;4.57;;;1.50;90.50;0.00;102570.00;;;;4972307;28;20054;-71
2021/03/18 02:18:36;;;;;;;11.63;4.78;;;1.40;90.90;-0.10;102555.00;;;;4974796;28;20046;-71
2021/03/18 02:21:47;;;;;;;10.85;3.65;;;1.50;90.60;-0.10;102564.00;;;;4977541;28;20043;-71
2021/03/18 02:24:27;;;;;;;11.20;3.92;;;1.50;90.90;-0.10;102556.00;;;;4969899;28;20075;-71
2021/03/18 02:28:06;;;;;;;12.95;4.20;;;1.40;90.90;-0.10;102558.00;;;;4963632;28;20047;-70
2021/03/18 02:31:11;;;;;;;12.00;4.10;;;1.40;90.90;-0.20;102562.00;;;;4898680;29;20047;-70
2021/03/18 02:34:02;;;;;;;15.13;4.85;;;1.40;90.90;-0.20;102574.00;;;;4970768;28;20042;-70
2021/03/18 02:36:50;;;;;;;14.82;3.80;;;1.40;90.60;-0.20;102571.00;;;;4957875;28;20051;-71
2021/03/18 02:39:25;;;;;;;15.27;4.33;;;1.40;91.00;-0.20;102560.00;;;;4970464;28;20054;-71
2021/03/18 02:41:56;;;;;;;14.05;4.15;;;1.40;91.00;-0.20;102555.00;;;;4961874;28;20038;-71
2021/03/18 02:44:29;;;;;;;21.25;4.78;;;1.40;91.10;-0.20;102571.00;;;;4987817;28;20046;-70
2021/03/18 02:47:11;;;;;;;12.80;4.70;;;0.70;90.90;-0.20;102552.00;;;;4990096;28;20070;-70
2021/03/18 02:49:42;;;;;;;18.77;4.75;;;1.40;91.10;-0.20;102535.00;;;;4992269;28;20070;-71
2021/03/18 02:52:12;;;;;;;14.05;4.60;;;1.30;91.10;-0.20;102532.00;;;;4974080;28;20042;-71
2021/03/18 02:54:40;;;;;;;18.17;4.43;;;1.30;90.70;-0.10;102529.00;;;;4978069;28;20046;-71
2021/03/18 02:57:09;;;;;;;12.50;4.35;;;1.40;90.80;-0.10;102514.00;;;;4973046;28;20042;-71
2021/03/18 02:59:39;;;;;;;13.23;4.45;;;1.40;91.20;-0.10;102529.00;;;;4970158;28;20137;-71
2021/03/18 03:02:12;;;;;;;12.98;4.55;;;2.20;91.10;-0.10;102528.00;;;;4966913;28;20039;-70
2021/03/18 03:04:39;;;;;;;18.92;5.07;;;1.40;90.90;-0.10;102525.00;;;;4958318;28;20066;-71
2021/03/18 03:07:08;;;;;;;8.35;4.05;;;1.40;90.80;-0.10;102530.00;;;;4972318;28;20463;-71
2021/03/18 03:09:36;;;;;;;16.00;3.92;;;1.40;91.20;-0.10;102535.00;;;;4961015;28;20128;-70
2021/03/18 03:12:04;;;;;;;13.70;4.60;;;1.50;91.30;0.00;102546.00;;;;4954443;28;20097;-70
2021/03/18 03:14:31;;;;;;;14.80;4.90;;;1.50;91.20;0.00;102538.00;;;;4956393;28;20043;-70
2021/03/18 03:17:01;;;;;;;11.05;4.32;;;1.50;91.20;0.00;102534.00;;;;4953569;28;20070;-70
2021/03/18 03:19:29;;;;;;;13.52;4.63;;;1.50;90.80;0.00;102543.00;;;;4966393;28;20053;-70
2021/03/18 03:21:56;;;;;;;18.50;5.45;;;2.70;91.50;0.10;102532.00;;;;4937781;28;20476;-70
2021/03/18 03:24:24;;;;;;;13.27;4.53;;;1.50;90.90;0.10;102544.00;;;;4954058;28;20054;-70
2021/03/18 03:26:54;;;;;;;12.32;4.00;;;1.60;90.90;0.10;102544.00;;;;4957062;28;20031;-70
2021/03/18 03:29:20;;;;;;;13.25;4.55;;;1.60;91.30;0.10;102540.00;;;;4954804;28;20110;-70
2021/03/18 03:31:47;;;;;;;15.25;5.07;;;1.60;90.90;0.10;102551.00;;;;4948221;28;20051;-70
2021/03/18 03:34:13;;;;;;;14.30;5.65;;;1.60;90.90;0.20;102543.00;;;;4965077;28;20030;-70
2021/03/18 03:36:39;;;;;;;12.35;5.38;;;1.50;91.30;0.20;102547.00;;;;4952611;28;20710;-70
2021/03/18 03:39:07;;;;;;;26.98;6.50;;;1.60;91.30;0.20;102548.00;;;;4963770;28;20050;-70
2021/03/18 03:41:34;;;;;;;17.27;5.65;;;1.60;91.30;0.10;102543.00;;;;4971712;28;20053;-70
2021/03/18 03:44:02;;;;;;;10.90;5.25;;;1.60;91.30;0.10;102546.00;;;;4968247;28;20415;-70
2021/03/18 03:46:28;;;;;;;18.10;5.70;;;2.40;91.50;0.10;102550.00;;;;4953596;28;20054;-70
2021/03/18 03:48:55;;;;;;;14.68;6.28;;;2.70;91.60;0.00;102546.00;;;;4941464;28;20042;-70
2021/03/18 03:51:21;;;;;;;14.30;6.20;;;1.50;91.30;0.00;102544.00;;;;4951325;28;20035;-70
2021/03/18 03:53:58;;;;;;;18.02;6.50;;;1.50;91.30;-0.10;102553.00;;;;4943006;28;20502;-70
2021/03/18 03:56:44;;;;;;;15.38;6.07;;;1.50;91.40;-0.10;102556.00;;;;4956976;28;20093;-69
2021/03/18 03:59:17;;;;;;;18.00;5.85;;;1.40;91.30;-0.10;102551.00;;;;4952254;28;20051;-70
2021/03/18 04:01:46;;;;;;;21.98;7.00;;;1.40;91.00;-0.10;102546.00;;;;4948247;28;20058;-70
2021/03/18 04:04:21;;;;;;;14.85;5.93;;;0.20;90.70;-0.10;102537.00;;;;4965587;28;20042;-70
2021/03/18 04:06:53;;;;;;;20.58;7.10;;;1.40;91.10;-0.10;102529.00;;;;4949355;28;20054;-68
2021/03/18 04:09:21;;;;;;;17.58;7.00;;;1.40;91.50;-0.10;102522.00;;;;4971128;28;20055;-70
2021/03/18 04:11:49;;;;;;;15.05;6.55;;;1.40;91.00;-0.10;102528.00;;;;4951317;28;20082;-70
2021/03/18 04:14:20;;;;;;;20.55;7.05;;;1.40;91.00;-0.10;102520.00;;;;4952290;28;20043;-70
2021/03/18 04:16:47;;;;;;;18.05;7.13;;;1.40;91.40;-0.20;102517.00;;;;4971070;28;20450;-71
2021/03/18 04:19:19;;;;;;;18.25;6.63;;;1.40;91.40;-0.20;102517.00;;;;4942949;28;20053;-70
2021/03/18 04:21:50;;;;;;;16.40;6.70;;;1.30;90.90;-0.20;102520.00;;;;4948660;28;20355;-70
2021/03/18 04:24:17;;;;;;;15.95;6.45;;;1.40;91.40;-0.20;102520.00;;;;4968565;28;20043;-71
2021/03/18 04:26:45;;;;;;;21.00;7.25;;;1.30;91.00;-0.20;102518.00;;;;4954262;28;20042;-70
2021/03/18 04:29:13;;;;;;;13.40;6.40;;;1.30;91.40;-0.20;102509.00;;;;4966030;28;20050;-68
2021/03/18 04:31:42;;;;;;;16.88;5.40;;;1.30;91.40;-0.20;102502.00;;;;4936266;28;20730;-70
2021/03/18 04:34:10;;;;;;;20.45;7.68;;;1.40;91.00;-0.20;102510.00;;;;4946129;28;20081;-70
2021/03/18 04:36:37;;;;;;;19.02;7.72;;;1.40;91.40;-0.10;102500.00;;;;4963922;28;20074;-71
2021/03/18 04:39:06;;;;;;;21.88;8.60;;;1.40;91.40;-0.10;102503.00;;;;4951603;28;20085;-71
2021/03/18 04:41:33;;;;;;;23.27;8.30;;;1.40;91.50;-0.10;102500.00;;;;4963795;28;20273;-70
2021/03/18 04:44:01;;;;;;;17.90;7.32;;;1.40;91.10;-0.10;102503.00;;;;4952531;28;20758;-71
2021/03/18 04:46:29;;;;;;;21.85;9.02;;;1.40;91.40;-0.10;102487.00;;;;4940539;28;21301;-70
2021/03/18 04:49:00;;;;;;;24.58;9.27;;;1.40;91.40;-0.10;102484.00;;;;4969967;28;20050;-71
2021/03/18 04:51:27;;;;;;;38.45;11.18;;;1.20;91.40;-0.10;102489.00;;;;4949540;28;20050;-70
2021/03/18 04:53:54;;;;;;;24.10;11.88;;;1.40;91.50;-0.10;102484.00;;;;4963494;28;20073;-70
2021/03/18 04:56:21;;;;;;;22.30;10.70;;;1.40;91.50;-0.10;102491.00;;;;4957214;28;20038;-70
2021/03/18 04:58:48;;;;;;;30.70;15.13;;;1.40;91.10;-0.10;102488.00;;;;4967501;28;20051;-70
2021/03/18 05:01:17;;;;;;;23.98;12.40;;;1.40;91.10;-0.10;102485.00;;;;4951169;28;20050;-70
2021/03/18 05:03:46;;;;;;;32.00;16.85;;;1.50;91.50;0.00;102499.00;;;;4968793;28;20043;-70
2021/03/18 05:06:13;;;;;;;50.70;22.52;;;1.50;91.20;-0.10;102493.00;;;;4965770;28;20404;-70
2021/03/18 05:08:41;;;;;;;35.47;16.50;;;1.50;91.50;0.00;102492.00;;;;4954003;28;20039;-70
2021/03/18 05:11:09;;;;;;;34.00;16.35;;;1.50;91.50;0.00;102487.00;;;;4968298;28;20042;-70
2021/03/18 05:13:36;;;;;;;30.55;13.63;;;1.50;91.20;0.00;102487.00;;;;4952091;28;20051;-71
2021/03/18 05:16:03;;;;;;;26.05;12.18;;;1.50;91.50;0.00;102485.00;;;;4954102;28;20047;-70
2021/03/18 05:18:31;;;;;;;26.13;11.68;;;2.10;91.70;0.00;102486.00;;;;4951730;28;20054;-70
2021/03/18 05:21:01;;;;;;;28.33;11.10;;;1.50;91.10;0.00;102489.00;;;;4950970;28;20042;-71
2021/03/18 05:23:27;;;;;;;21.65;10.50;;;2.00;91.60;0.00;102482.00;;;;4947496;28;20051;-71
2021/03/18 05:25:53;;;;;;;25.00;10.75;;;1.50;91.10;0.00;102481.00;;;;4965333;28;20066;-70
2021/03/18 05:28:19;;;;;;;26.45;12.15;;;1.40;91.20;-0.10;102471.00;;;;4966268;28;20049;-70
2021/03/18 05:30:46;;;;;;;39.50;15.57;;;1.40;91.70;-0.10;102483.00;;;;4950108;28;20305;-70
2021/03/18 05:33:12;;;;;;;36.53;15.23;;;1.40;91.70;-0.10;102486.00;;;;4954556;28;20050;-70
2021/03/18 05:35:42;;;;;;;29.42;14.93;;;1.40;91.40;-0.10;102480.00;;;;4973204;28;20072;-71
2021/03/18 05:38:10;;;;;;;34.00;15.75;;;2.40;91.90;-0.10;102466.00;;;;4967560;28;20516;-69
2021/03/18 05:40:37;;;;;;;34.80;16.98;;;1.50;91.70;0.00;102459.00;;;;4967203;28;20058;-70
2021/03/18 05:43:05;;;;;;;35.95;16.90;;;1.50;91.70;0.00;102442.00;;;;4944555;28;20129;-70
2021/03/18 05:45:31;;;;;;;;;;;1.50;91.30;0.00;102455.00;;;;4951801;28;20421;-69
2021/03/18 05:47:59;;;;;;;43.10;21.05;;;1.50;91.90;0.10;102460.00;;;;4975013;28;19922;-69
2021/03/18 05:50:25;;;;;;;41.20;20.23;;;1.60;91.50;0.10;102450.00;;;;4951987;28;20122;-69
2021/03/18 05:52:52;;;;;;;41.05;19.67;;;1.60;91.70;0.10;102441.00;;;;4953323;28;20679;-69
2021/03/18 05:55:23;;;;;;;40.97;19.23;;;1.60;91.50;0.10;102453.00;;;;4970028;28;20648;-69
2021/03/18 05:57:51;;;;;;;36.67;18.80;;;1.60;91.60;0.10;102446.00;;;;4949735;28;20047;-69
2021/03/18 06:00:18;;;;;;;45.58;19.00;;;1.60;91.80;0.20;102449.00;;;;4960218;28;20942;-70
2021/03/18 06:02:44;;;;;;;27.27;15.52;;;1.60;91.90;0.20;102445.00;;;;4966164;28;20096;-70
2021/03/18 06:05:15;;;;;;;35.47;16.10;;;1.70;91.50;0.20;102435.00;;;;4977716;28;20128;-70
2021/03/18 06:07:45;;;;;;;32.63;14.88;;;1.70;91.50;0.30;102450.00;;;;4994607;28;20573;-70
2021/03/18 06:10:15;;;;;;;27.38;14.00;;;1.70;91.90;0.30;102440.00;;;;4977991;28;20031;-70
2021/03/18 06:12:43;;;;;;;29.48;13.70;;;1.70;92.00;0.30;102437.00;;;;4957760;28;20051;-70
2021/03/18 06:15:11;;;;;;;;;;;1.80;91.90;0.30;102430.00;;;;4963714;28;20046;-69
2021/03/18 06:17:38;;;;;;;31.57;14.37;;;1.80;92.00;0.40;102438.00;;;;4993090;28;19930;-69
2021/03/18 06:20:13;;;;;;;36.70;15.80;;;1.90;91.70;0.40;102432.00;;;;4987238;28;20051;-69
2021/03/18 06:22:45;;;;;;;26.48;15.23;;;1.90;92.00;0.50;102425.00;;;;4963341;28;20041;-69
2021/03/18 06:25:37;;;;;;;36.25;17.73;;;1.90;92.00;0.50;102422.00;;;;4962245;28;20063;-69
2021/03/18 06:28:22;;;;;;;35.25;17.13;;;1.90;92.00;0.50;102420.00;;;;4961858;28;20093;-69
2021/03/18 06:31:07;;;;;;;34.17;16.73;;;2.00;91.90;0.60;102423.00;;;;4958472;28;20046;-69
2021/03/18 06:33:48;;;;;;;33.63;17.40;;;2.00;91.60;0.60;102421.00;;;;4960446;28;20043;-69
2021/03/18 06:36:34;;;;;;;38.05;18.10;;;2.00;91.90;0.70;102422.00;;;;4972595;28;20122;-70
2021/03/18 06:39:07;;;;;;;40.38;18.30;;;2.10;92.00;0.70;102419.00;;;;4976464;28;20136;-70
2021/03/18 06:41:40;;;;;;;35.90;16.92;;;2.10;91.90;0.70;102425.00;;;;4980512;28;20050;-69
2021/03/18 06:44:27;;;;;;;34.38;15.75;;;2.20;92.00;0.80;102427.00;;;;4982085;28;20038;-69
2021/03/18 06:46:56;;;;;;;37.22;18.65;;;2.20;91.50;0.90;102419.00;;;;4981805;28;20815;-69
2021/03/18 06:49:24;;;;;;;34.78;16.23;;;2.00;91.90;0.90;102417.00;;;;4979846;28;20061;-69
2021/03/18 06:52:11;;;;;;;31.48;16.58;;;2.30;92.00;1.00;102426.00;;;;4958315;28;20054;-69
2021/03/18 06:54:44;;;;;;;38.63;16.83;;;2.30;91.90;1.00;102421.00;;;;4963664;28;21320;-70
2021/03/18 06:57:18;;;;;;;43.03;14.90;;;2.40;92.00;1.00;102424.00;;;;4958827;28;20046;-69
2021/03/18 06:59:44;;;;;;;29.92;15.18;;;2.40;91.60;1.10;102412.00;;;;4958758;28;20112;-69
2021/03/18 07:02:15;;;;;;;33.60;13.75;;;2.50;91.90;1.20;102417.00;;;;4958824;28;20732;-69
2021/03/18 07:04:53;;;;;;;31.35;15.00;;;2.50;91.60;1.20;102406.00;;;;4975333;28;20546;-70
2021/03/18 07:07:28;;;;;;;33.83;14.57;;;2.60;91.50;1.30;102410.00;;;;4957707;28;20533;-69
2021/03/18 07:09:57;;;;;;;27.20;12.43;;;2.60;91.90;1.30;102404.00;;;;4979420;28;20050;-69
2021/03/18 07:12:30;;;;;;;28.60;13.80;;;2.70;91.50;1.40;102402.00;;;;4980142;28;20134;-69
2021/03/18 07:14:59;;;;;;;23.95;11.50;;;2.70;91.40;1.50;102405.00;;;;4975499;28;20038;-69
2021/03/18 07:17:35;;;;;;;25.73;13.40;;;2.80;91.80;1.60;102395.00;;;;4992445;28;20117;-69
2021/03/18 07:20:18;;;;;;;28.38;13.10;;;3.00;91.40;1.60;102402.00;;;;4969699;28;20618;-68
2021/03/18 07:22:47;;;;;;;28.00;13.07;;;3.00;91.80;1.70;102400.00;;;;4975603;28;20047;-68
2021/03/18 07:25:16;;;;;;;21.85;11.20;;;3.00;91.70;1.90;102399.00;;;;4973528;28;20572;-68
2021/03/18 07:27:46;;;;;;;21.20;10.73;;;3.20;91.70;1.90;102405.00;;;;4976586;28;20053;-68
2021/03/18 07:30:37;;;;;;;23.27;10.85;;;3.20;91.20;2.00;102409.00;;;;4975376;28;20046;-68
2021/03/18 07:33:04;;;;;;;16.77;9.43;;;3.30;92.10;2.10;102402.00;;;;4975440;28;20045;-68
2021/03/18 07:35:31;;;;;;;19.05;10.70;;;3.40;91.10;2.20;102394.00;;;;4956716;28;20096;-68
2021/03/18 07:37:57;;;;;;;24.60;11.57;;;3.50;91.10;2.30;102402.00;;;;4959399;28;20042;-68
2021/03/18 07:40:26;;;;;;;20.30;10.55;;;3.50;91.00;2.30;102408.00;;;;4939891;28;20073;-68
2021/03/18 07:42:54;;;;;;;18.27;8.93;;;3.50;91.00;2.40;102411.00;;;;4941993;28;20068;-68
2021/03/18 07:45:23;;;;;;;20.45;10.43;;;3.60;91.40;2.50;102415.00;;;;4954371;28;20509;-68
2021/03/18 07:47:49;;;;;;;21.02;10.48;;;3.70;91.40;2.50;102418.00;;;;4979122;28;20117;-68
2021/03/18 07:50:22;;;;;;;19.02;9.13;;;3.70;91.40;2.60;102413.00;;;;4976684;28;20043;-68
2021/03/18 07:52:49;;;;;;;20.88;10.32;;;3.90;91.30;2.70;102414.00;;;;4991287;28;20054;-69
2021/03/18 07:55:21;;;;;;;15.25;8.90;;;4.10;91.30;2.70;102409.00;;;;4978558;28;20038;-68
2021/03/18 07:57:51;;;;;;;27.98;13.95;;;4.90;91.50;2.80;102415.00;;;;4990913;28;20625;-68
2021/03/18 08:00:30;;;;;;;21.70;9.40;;;8.60;92.30;2.90;102424.00;;;;4972058;28;20039;-68
2021/03/18 08:03:21;;;;;;;23.92;9.43;;;4.10;91.20;3.00;102413.00;;;;4973612;28;20034;-68
2021/03/18 08:05:48;;;;;;;24.77;8.77;;;4.20;90.80;3.00;102413.00;;;;4974323;28;20050;-68
2021/03/18 08:08:36;;;;;;;17.05;8.27;;;4.30;91.20;3.10;102425.00;;;;4975562;28;20492;-68
2021/03/18 08:11:12;;;;;;;17.23;9.07;;;4.40;91.20;3.20;102411.00;;;;4979752;28;20696;-68
2021/03/18 08:13:41;;;;;;;16.33;8.82;;;6.30;91.70;3.20;102426.00;;;;4991068;28;20333;-68
2021/03/18 08:16:29;;;;;;;19.90;8.88;;;4.40;91.20;3.20;102423.00;;;;4974998;28;20065;-68
2021/03/18 08:18:55;;;;;;;20.95;8.45;;;4.50;90.80;3.30;102426.00;;;;4977780;28;20548;-68
2021/03/18 08:21:40;;;;;;;17.95;8.18;;;4.50;90.80;3.30;102429.00;;;;4972813;28;20042;-68
2021/03/18 08:24:09;;;;;;;25.17;7.63;;;4.50;90.80;3.30;102435.00;;;;4975085;28;20049;-68
2021/03/18 08:26:49;;;;;;;16.35;8.65;;;4.60;91.20;3.30;102427.00;;;;4975606;28;20531;-69
2021/03/18 08:29:38;;;;;;;17.02;7.55;;;4.60;91.20;3.30;102431.00;;;;4979989;28;20046;-68
2021/03/18 08:32:08;;;;;;;20.27;9.23;;;4.60;91.20;3.30;102424.00;;;;4957749;28;20588;-68
2021/03/18 08:34:54;;;;;;;15.30;7.95;;;4.60;90.80;3.30;102432.00;;;;4957826;28;20054;-68
2021/03/18 08:37:40;;;;;;;26.20;10.27;;;4.60;91.20;3.30;102423.00;;;;4953592;28;20478;-68
2021/03/18 08:40:21;;;;;;;21.52;9.35;;;4.50;91.10;3.30;102437.00;;;;4973261;28;20166;-68
2021/03/18 08:42:48;;;;;;;23.75;9.07;;;4.60;91.20;3.30;102431.00;;;;4977984;28;20105;-68
2021/03/18 08:45:20;;;;;;;27.83;9.88;;;4.60;90.90;3.40;102432.00;;;;4975010;28;20042;-68
2021/03/18 08:47:54;;;;;;;21.90;8.77;;;4.60;91.30;3.40;102443.00;;;;4974606;28;20920;-68
2021/03/18 08:50:29;;;;;;;22.95;9.93;;;4.70;91.20;3.40;102429.00;;;;4990163;28;20042;-69
2021/03/18 08:52:57;;;;;;;24.42;8.85;;;4.70;91.20;3.50;102438.00;;;;4976245;28;20065;-68
2021/03/18 08:55:44;;;;;;;18.27;9.05;;;4.70;91.20;3.60;102426.00;;;;4971811;28;20105;-69
2021/03/18 08:58:14;;;;;;;27.33;9.65;;;4.80;91.20;3.70;102424.00;;;;4977388;28;20417;-68
2021/03/18 09:00:40;;;;;;;24.63;9.68;;;4.90;91.20;3.80;102427.00;;;;4976109;28;20077;-69
2021/03/18 09:03:07;;;;;;;20.80;8.73;;;4.90;91.30;3.90;102427.00;;;;4977450;28;20127;-69
2021/03/18 09:05:34;;;;;;;19.42;8.73;;;5.10;90.90;4.00;102437.00;;;;4953931;28;20051;-69
2021/03/18 09:08:04;;;;;;;21.83;8.85;;;5.10;91.30;4.10;102428.00;;;;4971685;28;20042;-69
2021/03/18 09:10:35;;;;;;;18.80;8.60;;;5.30;90.90;4.20;102435.00;;;;4970041;28;20118;-69
2021/03/18 09:13:04;;;;;;;25.65;9.23;;;5.30;91.20;4.30;102423.00;;;;4955140;28;20062;-68
2021/03/18 09:15:39;;;;;;;20.52;9.02;;;5.40;90.70;4.30;102422.00;;;;4952142;28;20141;-69
2021/03/18 09:18:39;;;;;;;16.15;8.18;;;5.50;91.10;4.40;102426.00;;;;4958154;28;20178;-69
2021/03/18 09:21:08;;;;;;;20.95;8.73;;;5.50;90.50;4.40;102428.00;;;;4957719;28;20617;-69
2021/03/18 09:23:37;;;;;;;21.63;9.38;;;5.60;90.90;4.40;102418.00;;;;4952982;28;20065;-69
2021/03/18 09:26:08;;;;;;;28.42;9.60;;;5.60;91.00;4.40;102414.00;;;;4970705;28;20071;-69
2021/03/18 09:28:39;;;;;;;24.92;9.80;;;5.60;91.00;4.50;102414.00;;;;4953975;28;21341;-68
2021/03/18 09:31:06;;;;;;;27.25;9.85;;;5.60;91.00;4.50;102407.00;;;;4956480;28;20054;-68
2021/03/18 09:33:44;;;;;;;21.77;10.75;;;5.60;90.80;4.50;102411.00;;;;4956085;28;20168;-68
2021/03/18 09:36:18;;;;;;;19.83;10.30;;;5.60;91.10;4.50;102416.00;;;;4952307;28;20141;-68
2021/03/18 09:38:58;;;;;;;19.70;10.63;;;5.70;91.20;4.50;102404.00;;;;4957014;28;21129;-68
2021/03/18 09:41:36;;;;;;;22.23;10.35;;;5.70;91.20;4.60;102397.00;;;;4953667;28;20051;-69
2021/03/18 09:44:20;;;;;;;26.00;10.93;;;5.70;91.20;4.60;102401.00;;;;4950863;28;20027;-68
2021/03/18 09:46:53;;;;;;;27.88;12.25;;;5.80;91.30;4.70;102397.00;;;;4969636;28;20047;-68
2021/03/18 09:49:39;;;;;;;26.35;11.50;;;5.80;91.20;4.80;102413.00;;;;4933789;28;20440;-68
2021/03/18 09:52:11;;;;;;;30.75;10.60;;;5.90;91.20;4.90;102403.00;;;;4989791;28;20050;-68
2021/03/18 09:54:38;;;;;;;17.90;9.98;;;6.00;91.20;5.00;102410.00;;;;4967231;28;20125;-68
2021/03/18 09:57:08;;;;;;;19.92;10.43;;;6.20;90.80;5.10;102392.00;;;;4953151;28;20639;-68
2021/03/18 09:59:35;;;;;;;22.00;11.07;;;6.20;91.20;5.20;102386.00;;;;4951268;28;20043;-68
2021/03/18 10:02:03;;;;;;;23.17;9.07;;;6.30;90.70;5.30;102385.00;;;;4968931;28;20042;-68
2021/03/18 10:04:37;;;;;;;30.92;9.45;;;6.40;90.40;5.40;102384.00;;;;4953564;28;20057;-68
2021/03/18 10:07:03;;;;;;;28.58;10.35;;;6.50;90.20;5.40;102389.00;;;;4955503;28;20038;-68
2021/03/18 10:09:36;;;;;;;26.08;10.98;;;7.20;90.80;5.40;102382.00;;;;4955183;28;20042;-69
2021/03/18 10:12:11;;;;;;;18.45;8.70;;;6.50;90.60;5.40;102376.00;;;;4969559;28;20061;-68
2021/03/18 10:15:06;;;;;;;23.17;8.85;;;6.50;90.00;5.40;102377.00;;;;4954638;28;20092;-68
2021/03/18 10:17:41;;;;;;;15.93;8.50;;;6.50;90.50;5.40;102374.00;;;;4958161;28;20049;-68
2021/03/18 10:20:14;;;;;;;20.52;8.90;;;6.50;90.00;5.50;102374.00;;;;4952883;28;20046;-68
2021/03/18 10:23:06;;;;;;;26.35;9.95;;;6.60;90.10;5.60;102373.00;;;;4955214;28;20605;-68
2021/03/18 10:25:35;;;;;;;17.45;8.52;;;6.70;90.60;5.70;102365.00;;;;4959560;28;20689;-68
2021/03/18 10:28:12;;;;;;;20.27;8.77;;;6.80;90.50;5.80;102354.00;;;;4962141;28;20510;-69
2021/03/18 10:30:45;;;;;;;30.33;9.47;;;6.90;90.30;5.90;102349.00;;;;4963950;28;20547;-69
2021/03/18 10:33:25;;;;;;;20.25;9.70;;;7.00;89.70;6.00;102358.00;;;;4949406;28;20459;-68
2021/03/18 10:35:55;;;;;;;23.85;9.25;;;7.00;89.60;6.10;102342.00;;;;4960850;28;20049;-68
2021/03/18 10:38:31;;;;;;;20.80;8.35;;;7.10;90.20;6.20;102347.00;;;;4960138;28;20039;-68
2021/03/18 10:41:03;;;;;;;22.63;8.70;;;7.10;90.70;6.30;102356.00;;;;4953304;28;20055;-69
2021/03/18 10:43:37;;;;;;;26.63;8.25;;;7.30;90.20;6.40;102352.00;;;;4970726;28;20457;-69
2021/03/18 10:46:11;;;;;;;23.38;8.65;;;7.40;90.00;6.50;102352.00;;;;4971335;28;20043;-69
2021/03/18 10:48:39;;;;;;;26.17;9.07;;;7.50;89.60;6.60;102344.00;;;;4956800;28;20942;-69
2021/03/18 10:51:12;;;;;;;19.58;7.93;;;7.60;89.80;6.70;102349.00;;;;4955389;28;20038;-69
2021/03/18 10:53:41;;;;;;;24.00;8.30;;;7.70;88.50;6.60;102338.00;;;;4954675;28;20055;-69
2021/03/18 10:56:31;;;;;;;20.30;8.05;;;7.70;88.20;6.70;102328.00;;;;4969593;28;20039;-69
2021/03/18 10:58:57;;;;;;;22.23;9.07;;;7.70;89.10;6.90;102336.00;;;;4959988;28;20062;-68
2021/03/18 11:01:26;;;;;;;25.20;7.88;;;7.80;89.50;7.00;102328.00;;;;4969726;28;20042;-69
2021/03/18 11:04:03;;;;;;;31.52;8.65;;;8.00;87.50;7.00;102329.00;;;;4943814;28;20043;-67
2021/03/18 11:06:29;;;;;;;24.90;7.72;;;8.00;86.30;7.10;102328.00;;;;4967142;28;20034;-68
2021/03/18 11:08:57;;;;;;;27.80;7.63;;;8.10;88.20;7.10;102332.00;;;;4975104;28;20049;-68
2021/03/18 11:11:32;;;;;;;30.85;8.18;;;8.20;87.90;7.10;102330.00;;;;4976697;28;20035;-69
2021/03/18 11:14:14;;;;;;;26.23;8.23;;;8.10;88.00;7.10;102328.00;;;;4975810;28;20054;-68